DEASU -EDXH
Flight info
| Callsign | DEASU |
|---|---|
| Flight time | N/A |
| Altitude | |
| Route | |
| Aircraft |
Departure
| Time | N/A |
|---|---|
| Airport | - |
Arrival
| Time | 2026-04-20 19:37 |
|---|---|
| Airport | Helgoland-Düne Airport (EDXH) |
| Time | Latitude | Longitude | Altitude | Speed | Heading |
|---|---|---|---|---|---|
| 2026-04-20 19:27 | 54.10240 | 7.79229 | 2911 ft | 106 kts | 49° |
| 2026-04-20 19:28 | 54.10820 | 7.80018 | 2874 ft | 107 kts | 47° |
| 2026-04-20 19:28 | 54.11423 | 7.80749 | 2877 ft | 106 kts | 48° |
| 2026-04-20 19:28 | 54.12034 | 7.81505 | 2762 ft | 111 kts | 46° |
| 2026-04-20 19:28 | 54.12666 | 7.82305 | 2569 ft | 113 kts | 47° |
| 2026-04-20 19:29 | 54.13238 | 7.83185 | 2446 ft | 109 kts | 53° |
| 2026-04-20 19:29 | 54.13793 | 7.84057 | 2324 ft | 109 kts | 49° |
| 2026-04-20 19:29 | 54.14396 | 7.84861 | 2170 ft | 111 kts | 46° |
| 2026-04-20 19:29 | 54.15002 | 7.85670 | 1953 ft | 111 kts | 46° |
| 2026-04-20 19:30 | 54.15610 | 7.86478 | 1675 ft | 109 kts | 48° |
| 2026-04-20 19:30 | 54.16152 | 7.87364 | 1404 ft | 108 kts | 51° |
| 2026-04-20 19:30 | 54.16730 | 7.88209 | 1116 ft | 109 kts | 47° |
| 2026-04-20 19:30 | 54.17285 | 7.89091 | 818 ft | 108 kts | 56° |
| 2026-04-20 19:31 | 54.17625 | 7.90116 | 610 ft | 87 kts | 61° |
| 2026-04-20 19:31 | 54.18001 | 7.90855 | 319 ft | 76 kts | 50° |
| 2026-04-20 19:31 | 54.18403 | 7.91340 | 49 ft | 67 kts | 46° |
| 2026-04-20 19:31 | 54.18779 | 7.91678 | 62 ft | 68 kts | 44° |
| 2026-04-20 19:32 | 54.19165 | 7.92168 | 330 ft | 76 kts | 43° |
| 2026-04-20 19:32 | 54.19552 | 7.92753 | 643 ft | 74 kts | 72° |
| 2026-04-20 19:32 | 54.19232 | 7.93471 | 810 ft | 100 kts | 153° |
| 2026-04-20 19:32 | 54.18508 | 7.93176 | 757 ft | 113 kts | 192° |
| 2026-04-20 19:33 | 54.17808 | 7.92500 | 667 ft | 117 kts | 207° |
| 2026-04-20 19:33 | 54.17265 | 7.91511 | 657 ft | 115 kts | 239° |
| 2026-04-20 19:33 | 54.17304 | 7.90335 | 618 ft | 76 kts | 358° |
| 2026-04-20 19:33 | 54.17651 | 7.90625 | 394 ft | 64 kts | 44° |
| 2026-04-20 19:34 | 54.18041 | 7.91036 | 251 ft | 67 kts | 45° |
| 2026-04-20 19:34 | 54.18435 | 7.91392 | 41 ft | 62 kts | 39° |
| 2026-04-20 19:34 | 54.18670 | 7.91591 | 14 ft | 52 kts | 37° |
| 2026-04-20 19:34 | 54.19089 | 7.91841 | 210 ft | 71 kts | 30° |
| 2026-04-20 19:35 | 54.19388 | 7.92452 | 428 ft | 80 kts | 92° |
| 2026-04-20 19:35 | 54.18819 | 7.92905 | 522 ft | 117 kts | 184° |
| 2026-04-20 19:35 | 54.18049 | 7.92369 | 591 ft | 121 kts | 200° |
| 2026-04-20 19:35 | 54.17325 | 7.91501 | 630 ft | 127 kts | 212° |
| 2026-04-20 19:36 | 54.16826 | 7.90316 | 666 ft | 119 kts | 280° |
| 2026-04-20 19:36 | 54.17147 | 7.89896 | 579 ft | 53 kts | 49° |
| 2026-04-20 19:36 | 54.17435 | 7.90338 | 520 ft | 59 kts | 56° |
| 2026-04-20 19:36 | 54.17798 | 7.90809 | 397 ft | 72 kts | 42° |
| 2026-04-20 19:37 | 54.18218 | 7.91188 | 166 ft | 61 kts | 22° |
| 2026-04-20 19:37 | 54.18535 | 7.91472 | 20 ft | 38 kts | 43° |
| 2026-04-20 19:37 | 54.18769 | 7.91686 | 88 ft | 49 kts | 43° |
| 2026-04-20 19:37 | 54.19109 | 7.92043 | 330 ft | 63 kts | 44° |
| 2026-04-20 19:38 | 54.19561 | 7.92248 | 624 ft | 86 kts | 351° |
| 2026-04-20 19:38 | 54.19954 | 7.91228 | 820 ft | 112 kts | 302° |
| 2026-04-20 19:38 | 54.20195 | 7.89921 | 911 ft | 123 kts | 293° |
| 2026-04-20 19:38 | 54.20361 | 7.88476 | 1073 ft | 119 kts | 285° |
| 2026-04-20 19:39 | 54.20242 | 7.87072 | 1111 ft | 132 kts | 232° |
| 2026-04-20 19:39 | 54.19581 | 7.85965 | 1078 ft | 129 kts | 206° |
| 2026-04-20 19:39 | 54.18807 | 7.85743 | 1082 ft | 110 kts | 151° |
| 2026-04-20 19:39 | 54.18082 | 7.86128 | 1093 ft | 107 kts | 142° |
| 2026-04-20 19:40 | 54.17418 | 7.86783 | 973 ft | 108 kts | 130° |
| 2026-04-20 19:40 | 54.16827 | 7.87418 | 1110 ft | 89 kts | 126° |
| 2026-04-20 19:40 | 54.16567 | 7.88190 | 1023 ft | 68 kts | 85° |
| 2026-04-20 19:40 | 54.16693 | 7.88921 | 830 ft | 60 kts | 60° |
| 2026-04-20 19:41 | 54.16905 | 7.89453 | 705 ft | 48 kts | 59° |
| 2026-04-20 19:41 | 54.17143 | 7.89919 | 650 ft | 58 kts | 54° |
| 2026-04-20 19:41 | 54.17480 | 7.90430 | 530 ft | 70 kts | 46° |
| 2026-04-20 19:41 | 54.17862 | 7.90834 | 377 ft | 59 kts | 43° |
| 2026-04-20 19:42 | 54.18180 | 7.91171 | 216 ft | 50 kts | 45° |
| 2026-04-20 19:42 | 54.18496 | 7.91446 | 29 ft | 48 kts | 44° |
| 2026-04-20 19:42 | 54.18719 | 7.91665 | 14 ft | 44 kts | 36° |
| 2026-04-20 19:42 | 54.19048 | 7.91802 | 338 ft | 37 kts | 20° |
| 2026-04-20 19:43 | 54.19240 | 7.91811 | 437 ft | 56 kts | 18° |
| 2026-04-20 19:43 | 54.19637 | 7.92307 | 566 ft | 66 kts | 97° |
| 2026-04-20 19:43 | 54.19335 | 7.92931 | 658 ft | 76 kts | 124° |
| 2026-04-20 19:43 | 54.18810 | 7.93438 | 659 ft | 93 kts | 148° |
| 2026-04-20 19:44 | 54.18169 | 7.93089 | 739 ft | 108 kts | 202° |
| 2026-04-20 19:44 | 54.17526 | 7.92329 | 716 ft | 118 kts | 210° |
| 2026-04-20 19:44 | 54.16927 | 7.91364 | 723 ft | 118 kts | 221° |
| 2026-04-20 19:44 | 54.16383 | 7.90315 | 739 ft | 118 kts | 227° |
| 2026-04-20 19:45 | 54.16422 | 7.89176 | 740 ft | 81 kts | 341° |
| 2026-04-20 19:45 | 54.16714 | 7.89249 | 650 ft | 28 kts | 60° |
| 2026-04-20 19:45 | 54.16873 | 7.89467 | 563 ft | 33 kts | 52° |
| 2026-04-20 19:45 | 54.17039 | 7.89723 | 531 ft | 32 kts | 57° |
| 2026-04-20 19:46 | 54.17220 | 7.89975 | 523 ft | 33 kts | 47° |
| 2026-04-20 19:46 | 54.17439 | 7.90102 | 514 ft | 36 kts | 50° |
| 2026-04-20 19:46 | 54.17635 | 7.90379 | 454 ft | 39 kts | 54° |
| 2026-04-20 19:46 | 54.17800 | 7.90756 | 352 ft | 39 kts | 58° |
| 2026-04-20 19:47 | 54.18021 | 7.90998 | 241 ft | 36 kts | 47° |
| 2026-04-20 19:47 | 54.18237 | 7.91224 | 137 ft | 38 kts | 45° |
| 2026-04-20 19:47 | 54.18469 | 7.91429 | 31 ft | 32 kts | 45° |
| 2026-04-20 19:47 | 54.18611 | 7.91562 | 15 ft | 24 kts | 32° |
| 2026-04-20 19:48 | 54.18861 | 7.91786 | 135 ft | 47 kts | 47° |
| 2026-04-20 19:48 | 54.19176 | 7.92110 | 437 ft | 52 kts | 37° |
| 2026-04-20 19:48 | 54.19207 | 7.92739 | 567 ft | 81 kts | 129° |
| 2026-04-20 19:48 | 54.18667 | 7.92291 | 349 ft | 135 kts | 268° |
| 2026-04-20 19:49 | 54.18623 | 7.91297 | 874 ft | 95 kts | 246° |
| 2026-04-20 19:49 | 54.18545 | 7.89992 | 937 ft | 121 kts | 298° |
| 2026-04-20 19:49 | 54.18960 | 7.88740 | 1044 ft | 125 kts | 316° |
| 2026-04-20 19:49 | 54.19424 | 7.87578 | 1176 ft | 118 kts | 310° |
| 2026-04-20 19:50 | 54.19490 | 7.86146 | 1216 ft | 126 kts | 245° |
| 2026-04-20 19:50 | 54.18850 | 7.85427 | 1110 ft | 100 kts | 155° |
| 2026-04-20 19:50 | 54.18315 | 7.85870 | 1114 ft | 78 kts | 135° |
| 2026-04-20 19:50 | 54.17855 | 7.86291 | 1128 ft | 74 kts | 136° |
| 2026-04-20 19:51 | 54.17406 | 7.86673 | 1160 ft | 72 kts | 138° |
| 2026-04-20 19:51 | 54.16979 | 7.87075 | 1173 ft | 69 kts | 133° |
| 2026-04-20 19:51 | 54.16587 | 7.87411 | 1221 ft | 57 kts | 125° |
| 2026-04-20 19:51 | 54.16346 | 7.87797 | 1071 ft | 37 kts | 96° |
| 2026-04-20 19:52 | 54.16354 | 7.88234 | 922 ft | 37 kts | 73° |
| 2026-04-20 19:52 | 54.16470 | 7.88651 | 829 ft | 44 kts | 71° |
| 2026-04-20 19:52 | 54.16629 | 7.89149 | 828 ft | 52 kts | 65° |
| 2026-04-20 19:52 | 54.16789 | 7.89711 | 838 ft | 59 kts | 64° |
| 2026-04-20 19:53 | 54.17109 | 7.90206 | 736 ft | 56 kts | 47° |
| 2026-04-20 19:53 | 54.17454 | 7.90502 | 564 ft | 56 kts | 43° |
| 2026-04-20 19:53 | 54.17747 | 7.90725 | 386 ft | 35 kts | 52° |
| 2026-04-20 19:53 | 54.17960 | 7.90929 | 250 ft | 35 kts | 60° |
| 2026-04-20 19:54 | 54.18193 | 7.91182 | 168 ft | 38 kts | 56° |
| 2026-04-20 19:54 | 54.18447 | 7.91414 | 48 ft | 44 kts | 40° |
| 2026-04-20 19:54 | 54.18656 | 7.91587 | 13 ft | 14 kts | 24° |
| 2026-04-20 19:54 | 54.18670 | 7.91594 | 12 ft | 1 kts | 329° |
| 2026-04-20 19:55 | 54.18709 | 7.91580 | 12 ft | 7 kts | 353° |
| 2026-04-20 19:55 | 54.18737 | 7.91575 | 13 ft | 0 kts | 321° |
| 2026-04-20 19:55 | 54.18744 | 7.91568 | 14 ft | 0 kts | 332° |